sensor_id;sensor_type;location;lat;lon;timestamp;P1;durP1;ratioP1;P2;durP2;ratioP2
51961;SDS011;37986;51.238;17.128;2022-11-15T00:00:45;17.15;;;8.58;;
51961;SDS011;37986;51.238;17.128;2022-11-15T00:03:15;11.10;;;9.98;;
51961;SDS011;37986;51.238;17.128;2022-11-15T00:05:42;8.43;;;5.37;;
51961;SDS011;37986;51.238;17.128;2022-11-15T00:08:08;17.37;;;6.00;;
51961;SDS011;37986;51.238;17.128;2022-11-15T00:10:35;5.00;;;4.50;;
51961;SDS011;37986;51.238;17.128;2022-11-15T00:13:08;12.43;;;6.05;;
51961;SDS011;37986;51.238;17.128;2022-11-15T00:15:40;5.28;;;4.78;;
51961;SDS011;37986;51.238;17.128;2022-11-15T00:18:10;9.40;;;7.10;;
51961;SDS011;37986;51.238;17.128;2022-11-15T00:20:38;8.43;;;5.75;;
51961;SDS011;37986;51.238;17.128;2022-11-15T00:23:04;15.28;;;7.47;;
51961;SDS011;37986;51.238;17.128;2022-11-15T00:25:31;10.38;;;8.10;;
51961;SDS011;37986;51.238;17.128;2022-11-15T00:27:58;17.92;;;10.32;;
51961;SDS011;37986;51.238;17.128;2022-11-15T00:30:25;7.58;;;7.08;;
51961;SDS011;37986;51.238;17.128;2022-11-15T00:32:52;25.68;;;11.97;;
51961;SDS011;37986;51.238;17.128;2022-11-15T00:35:18;9.30;;;5.53;;
51961;SDS011;37986;51.238;17.128;2022-11-15T00:37:45;12.47;;;6.75;;
51961;SDS011;37986;51.238;17.128;2022-11-15T00:40:13;5.42;;;3.72;;
51961;SDS011;37986;51.238;17.128;2022-11-15T00:42:40;8.20;;;7.10;;
51961;SDS011;37986;51.238;17.128;2022-11-15T00:45:06;21.33;;;10.88;;
51961;SDS011;37986;51.238;17.128;2022-11-15T00:47:33;22.37;;;8.43;;
51961;SDS011;37986;51.238;17.128;2022-11-15T00:49:59;17.53;;;9.70;;
51961;SDS011;37986;51.238;17.128;2022-11-15T00:52:25;11.83;;;9.03;;
51961;SDS011;37986;51.238;17.128;2022-11-15T00:54:51;10.47;;;7.27;;
51961;SDS011;37986;51.238;17.128;2022-11-15T00:57:17;7.05;;;5.87;;
51961;SDS011;37986;51.238;17.128;2022-11-15T00:59:43;7.43;;;5.93;;
51961;SDS011;37986;51.238;17.128;2022-11-15T01:02:09;7.23;;;5.87;;
51961;SDS011;37986;51.238;17.128;2022-11-15T01:04:35;11.83;;;7.85;;
51961;SDS011;37986;51.238;17.128;2022-11-15T01:07:01;10.60;;;7.30;;
51961;SDS011;37986;51.238;17.128;2022-11-15T01:09:28;10.10;;;5.55;;
51961;SDS011;37986;51.238;17.128;2022-11-15T01:11:54;17.95;;;7.08;;
51961;SDS011;37986;51.238;17.128;2022-11-15T01:14:20;29.57;;;8.00;;
51961;SDS011;37986;51.238;17.128;2022-11-15T01:16:46;14.15;;;6.30;;
51961;SDS011;37986;51.238;17.128;2022-11-15T01:19:11;16.10;;;7.07;;
51961;SDS011;37986;51.238;17.128;2022-11-15T01:21:37;11.33;;;4.57;;
51961;SDS011;37986;51.238;17.128;2022-11-15T01:24:03;16.43;;;7.27;;
51961;SDS011;37986;51.238;17.128;2022-11-15T01:26:30;8.95;;;6.22;;
51961;SDS011;37986;51.238;17.128;2022-11-15T01:28:56;7.90;;;6.67;;
51961;SDS011;37986;51.238;17.128;2022-11-15T01:31:22;7.00;;;6.35;;
51961;SDS011;37986;51.238;17.128;2022-11-15T01:33:48;4.30;;;4.08;;
51961;SDS011;37986;51.238;17.128;2022-11-15T01:36:15;11.48;;;9.70;;
51961;SDS011;37986;51.238;17.128;2022-11-15T01:38:44;5.87;;;3.77;;
51961;SDS011;37986;51.238;17.128;2022-11-15T01:41:17;3.87;;;3.60;;
51961;SDS011;37986;51.238;17.128;2022-11-15T01:43:46;4.53;;;4.12;;
51961;SDS011;37986;51.238;17.128;2022-11-15T01:46:29;8.90;;;7.58;;
51961;SDS011;37986;51.238;17.128;2022-11-15T01:49:10;15.03;;;6.33;;
51961;SDS011;37986;51.238;17.128;2022-11-15T01:51:38;13.83;;;8.45;;
51961;SDS011;37986;51.238;17.128;2022-11-15T01:54:07;10.45;;;3.80;;
51961;SDS011;37986;51.238;17.128;2022-11-15T01:56:38;12.30;;;8.27;;
51961;SDS011;37986;51.238;17.128;2022-11-15T01:59:08;11.43;;;7.90;;
51961;SDS011;37986;51.238;17.128;2022-11-15T02:01:34;17.57;;;7.58;;
51961;SDS011;37986;51.238;17.128;2022-11-15T02:04:02;16.27;;;9.23;;
51961;SDS011;37986;51.238;17.128;2022-11-15T02:06:50;11.73;;;6.85;;
51961;SDS011;37986;51.238;17.128;2022-11-15T02:09:16;23.73;;;9.73;;
51961;SDS011;37986;51.238;17.128;2022-11-15T02:11:43;25.15;;;9.45;;
51961;SDS011;37986;51.238;17.128;2022-11-15T02:14:10;24.12;;;8.90;;
51961;SDS011;37986;51.238;17.128;2022-11-15T02:25:41;35.40;;;10.23;;
51961;SDS011;37986;51.238;17.128;2022-11-15T02:34:28;12.70;;;8.08;;
51961;SDS011;37986;51.238;17.128;2022-11-15T02:38:04;15.20;;;6.67;;
51961;SDS011;37986;51.238;17.128;2022-11-15T02:40:10;21.02;;;7.03;;
51961;SDS011;37986;51.238;17.128;2022-11-15T02:42:54;9.73;;;7.95;;
51961;SDS011;37986;51.238;17.128;2022-11-15T02:45:42;3.83;;;2.95;;
51961;SDS011;37986;51.238;17.128;2022-11-15T02:48:11;12.85;;;7.45;;
51961;SDS011;37986;51.238;17.128;2022-11-15T02:50:37;5.08;;;4.00;;
51961;SDS011;37986;51.238;17.128;2022-11-15T02:53:03;18.80;;;7.43;;
51961;SDS011;37986;51.238;17.128;2022-11-15T03:09:27;17.45;;;8.15;;
51961;SDS011;37986;51.238;17.128;2022-11-15T03:12:28;9.30;;;7.85;;
51961;SDS011;37986;51.238;17.128;2022-11-15T03:15:11;9.15;;;6.95;;
51961;SDS011;37986;51.238;17.128;2022-11-15T03:20:32;7.55;;;6.80;;
51961;SDS011;37986;51.238;17.128;2022-11-15T03:23:01;5.62;;;5.15;;
51961;SDS011;37986;51.238;17.128;2022-11-15T03:25:33;7.03;;;6.22;;
51961;SDS011;37986;51.238;17.128;2022-11-15T03:28:03;8.08;;;5.85;;
51961;SDS011;37986;51.238;17.128;2022-11-15T03:30:32;15.23;;;7.53;;
51961;SDS011;37986;51.238;17.128;2022-11-15T03:32:58;13.22;;;8.53;;
51961;SDS011;37986;51.238;17.128;2022-11-15T03:35:27;24.45;;;8.13;;
51961;SDS011;37986;51.238;17.128;2022-11-15T03:37:57;17.77;;;7.33;;
51961;SDS011;37986;51.238;17.128;2022-11-15T03:43:34;12.55;;;7.35;;
51961;SDS011;37986;51.238;17.128;2022-11-15T03:46:13;10.40;;;5.95;;
51961;SDS011;37986;51.238;17.128;2022-11-15T03:48:49;8.85;;;7.78;;
51961;SDS011;37986;51.238;17.128;2022-11-15T03:51:18;8.08;;;5.28;;
51961;SDS011;37986;51.238;17.128;2022-11-15T03:53:44;8.50;;;7.70;;
51961;SDS011;37986;51.238;17.128;2022-11-15T03:56:11;16.95;;;7.03;;
51961;SDS011;37986;51.238;17.128;2022-11-15T03:58:37;26.97;;;8.70;;
51961;SDS011;37986;51.238;17.128;2022-11-15T04:01:02;13.80;;;5.03;;
51961;SDS011;37986;51.238;17.128;2022-11-15T04:03:28;9.13;;;6.53;;
51961;SDS011;37986;51.238;17.128;2022-11-15T04:05:54;7.50;;;6.63;;
51961;SDS011;37986;51.238;17.128;2022-11-15T04:08:20;6.60;;;5.60;;
51961;SDS011;37986;51.238;17.128;2022-11-15T04:10:48;26.47;;;8.63;;
51961;SDS011;37986;51.238;17.128;2022-11-15T04:13:14;12.65;;;6.90;;
51961;SDS011;37986;51.238;17.128;2022-11-15T04:15:40;7.00;;;5.90;;
51961;SDS011;37986;51.238;17.128;2022-11-15T04:18:06;5.63;;;4.57;;
51961;SDS011;37986;51.238;17.128;2022-11-15T04:20:32;7.30;;;6.63;;
51961;SDS011;37986;51.238;17.128;2022-11-15T04:23:17;12.98;;;5.67;;
51961;SDS011;37986;51.238;17.128;2022-11-15T04:26:05;5.28;;;4.85;;
51961;SDS011;37986;51.238;17.128;2022-11-15T04:28:44;20.40;;;10.98;;
51961;SDS011;37986;51.238;17.128;2022-11-15T04:31:29;14.20;;;6.35;;
51961;SDS011;37986;51.238;17.128;2022-11-15T04:33:54;8.57;;;5.90;;
51961;SDS011;37986;51.238;17.128;2022-11-15T04:36:20;7.43;;;5.77;;
51961;SDS011;37986;51.238;17.128;2022-11-15T04:39:06;6.17;;;5.58;;
51961;SDS011;37986;51.238;17.128;2022-11-15T04:41:32;12.40;;;9.57;;
51961;SDS011;37986;51.238;17.128;2022-11-15T04:43:58;10.57;;;6.43;;
51961;SDS011;37986;51.238;17.128;2022-11-15T04:46:24;6.03;;;5.30;;
51961;SDS011;37986;51.238;17.128;2022-11-15T04:48:51;7.55;;;6.50;;
51961;SDS011;37986;51.238;17.128;2022-11-15T04:51:17;13.53;;;7.12;;
51961;SDS011;37986;51.238;17.128;2022-11-15T04:53:44;10.23;;;9.23;;
51961;SDS011;37986;51.238;17.128;2022-11-15T04:56:10;8.53;;;5.87;;
51961;SDS011;37986;51.238;17.128;2022-11-15T04:58:36;9.95;;;7.70;;
51961;SDS011;37986;51.238;17.128;2022-11-15T05:01:13;20.93;;;8.13;;
51961;SDS011;37986;51.238;17.128;2022-11-15T05:03:37;4.42;;;3.40;;
51961;SDS011;37986;51.238;17.128;2022-11-15T05:06:21;8.65;;;7.80;;
51961;SDS011;37986;51.238;17.128;2022-11-15T05:08:47;7.23;;;3.63;;
51961;SDS011;37986;51.238;17.128;2022-11-15T05:11:13;9.63;;;4.67;;
51961;SDS011;37986;51.238;17.128;2022-11-15T05:13:39;9.30;;;6.93;;
51961;SDS011;37986;51.238;17.128;2022-11-15T05:16:05;23.93;;;9.73;;
51961;SDS011;37986;51.238;17.128;2022-11-15T05:18:31;8.68;;;7.05;;
51961;SDS011;37986;51.238;17.128;2022-11-15T05:21:07;9.67;;;7.30;;
51961;SDS011;37986;51.238;17.128;2022-11-15T05:23:29;6.70;;;5.95;;
51961;SDS011;37986;51.238;17.128;2022-11-15T05:25:58;7.97;;;7.27;;
51961;SDS011;37986;51.238;17.128;2022-11-15T05:28:27;6.50;;;5.45;;
51961;SDS011;37986;51.238;17.128;2022-11-15T05:30:53;11.38;;;5.22;;
51961;SDS011;37986;51.238;17.128;2022-11-15T05:33:20;5.75;;;3.98;;
51961;SDS011;37986;51.238;17.128;2022-11-15T05:35:48;4.03;;;3.73;;
51961;SDS011;37986;51.238;17.128;2022-11-15T05:38:18;5.40;;;4.83;;
51961;SDS011;37986;51.238;17.128;2022-11-15T05:40:43;7.80;;;6.63;;
51961;SDS011;37986;51.238;17.128;2022-11-15T05:43:09;6.17;;;5.63;;
51961;SDS011;37986;51.238;17.128;2022-11-15T05:45:35;10.00;;;4.62;;
51961;SDS011;37986;51.238;17.128;2022-11-15T05:48:04;6.83;;;5.05;;
51961;SDS011;37986;51.238;17.128;2022-11-15T05:50:31;9.53;;;6.65;;
51961;SDS011;37986;51.238;17.128;2022-11-15T05:52:58;6.55;;;4.97;;
51961;SDS011;37986;51.238;17.128;2022-11-15T05:55:24;10.03;;;3.70;;
51961;SDS011;37986;51.238;17.128;2022-11-15T05:57:50;8.37;;;7.70;;
51961;SDS011;37986;51.238;17.128;2022-11-15T06:00:16;8.40;;;7.40;;
51961;SDS011;37986;51.238;17.128;2022-11-15T06:02:42;5.30;;;4.65;;
51961;SDS011;37986;51.238;17.128;2022-11-15T06:05:08;6.33;;;5.87;;
51961;SDS011;37986;51.238;17.128;2022-11-15T06:07:34;3.20;;;2.90;;
51961;SDS011;37986;51.238;17.128;2022-11-15T06:10:00;4.37;;;3.97;;
51961;SDS011;37986;51.238;17.128;2022-11-15T06:12:26;3.90;;;3.70;;
51961;SDS011;37986;51.238;17.128;2022-11-15T06:14:51;12.07;;;6.93;;
51961;SDS011;37986;51.238;17.128;2022-11-15T06:17:17;6.83;;;6.17;;
51961;SDS011;37986;51.238;17.128;2022-11-15T06:19:43;42.57;;;15.57;;
51961;SDS011;37986;51.238;17.128;2022-11-15T06:22:08;9.53;;;8.47;;
51961;SDS011;37986;51.238;17.128;2022-11-15T06:24:34;13.57;;;10.27;;
51961;SDS011;37986;51.238;17.128;2022-11-15T06:27:00;10.37;;;8.17;;
51961;SDS011;37986;51.238;17.128;2022-11-15T06:29:26;9.00;;;5.80;;
51961;SDS011;37986;51.238;17.128;2022-11-15T06:31:52;4.85;;;4.45;;
51961;SDS011;37986;51.238;17.128;2022-11-15T06:34:18;100.27;;;40.78;;
51961;SDS011;37986;51.238;17.128;2022-11-15T06:36:44;10.05;;;8.88;;
51961;SDS011;37986;51.238;17.128;2022-11-15T06:39:10;16.63;;;8.13;;
51961;SDS011;37986;51.238;17.128;2022-11-15T06:41:36;6.62;;;6.03;;
51961;SDS011;37986;51.238;17.128;2022-11-15T06:44:02;11.70;;;10.30;;
51961;SDS011;37986;51.238;17.128;2022-11-15T06:46:28;16.75;;;5.22;;
51961;SDS011;37986;51.238;17.128;2022-11-15T06:48:54;16.13;;;8.63;;
51961;SDS011;37986;51.238;17.128;2022-11-15T06:51:20;9.47;;;8.53;;
51961;SDS011;37986;51.238;17.128;2022-11-15T06:53:46;10.33;;;6.37;;
51961;SDS011;37986;51.238;17.128;2022-11-15T06:56:12;15.53;;;7.43;;
51961;SDS011;37986;51.238;17.128;2022-11-15T06:58:37;10.43;;;5.53;;
51961;SDS011;37986;51.238;17.128;2022-11-15T07:01:04;8.47;;;6.03;;
51961;SDS011;37986;51.238;17.128;2022-11-15T07:03:34;17.80;;;9.13;;
51961;SDS011;37986;51.238;17.128;2022-11-15T07:06:01;5.40;;;4.97;;
51961;SDS011;37986;51.238;17.128;2022-11-15T07:08:29;13.95;;;7.20;;
51961;SDS011;37986;51.238;17.128;2022-11-15T07:10:57;6.25;;;5.65;;
51961;SDS011;37986;51.238;17.128;2022-11-15T07:13:28;10.18;;;7.10;;
51961;SDS011;37986;51.238;17.128;2022-11-15T07:15:57;13.78;;;8.65;;
51961;SDS011;37986;51.238;17.128;2022-11-15T07:18:23;6.03;;;5.03;;
51961;SDS011;37986;51.238;17.128;2022-11-15T07:20:49;5.97;;;5.37;;
51961;SDS011;37986;51.238;17.128;2022-11-15T07:23:14;9.73;;;7.50;;
51961;SDS011;37986;51.238;17.128;2022-11-15T07:25:40;9.67;;;7.73;;
51961;SDS011;37986;51.238;17.128;2022-11-15T07:28:06;9.10;;;5.60;;
51961;SDS011;37986;51.238;17.128;2022-11-15T07:30:32;7.78;;;6.22;;
51961;SDS011;37986;51.238;17.128;2022-11-15T07:32:59;2.60;;;2.40;;
51961;SDS011;37986;51.238;17.128;2022-11-15T07:35:26;7.97;;;5.20;;
51961;SDS011;37986;51.238;17.128;2022-11-15T07:37:57;4.67;;;4.28;;
51961;SDS011;37986;51.238;17.128;2022-11-15T07:40:29;12.98;;;5.42;;
51961;SDS011;37986;51.238;17.128;2022-11-15T07:43:04;10.10;;;7.10;;
51961;SDS011;37986;51.238;17.128;2022-11-15T07:45:30;9.33;;;5.53;;
51961;SDS011;37986;51.238;17.128;2022-11-15T07:47:56;10.38;;;6.22;;
51961;SDS011;37986;51.238;17.128;2022-11-15T07:50:23;6.62;;;4.28;;
51961;SDS011;37986;51.238;17.128;2022-11-15T07:52:55;9.48;;;5.50;;
51961;SDS011;37986;51.238;17.128;2022-11-15T07:55:23;8.10;;;6.62;;
51961;SDS011;37986;51.238;17.128;2022-11-15T07:57:50;9.50;;;6.95;;
51961;SDS011;37986;51.238;17.128;2022-11-15T08:00:16;6.47;;;4.77;;
51961;SDS011;37986;51.238;17.128;2022-11-15T08:02:43;8.68;;;5.28;;
51961;SDS011;37986;51.238;17.128;2022-11-15T08:05:09;9.73;;;6.07;;
51961;SDS011;37986;51.238;17.128;2022-11-15T08:07:35;7.97;;;5.47;;
51961;SDS011;37986;51.238;17.128;2022-11-15T08:10:00;2.83;;;2.43;;
51961;SDS011;37986;51.238;17.128;2022-11-15T08:12:31;9.03;;;5.33;;
51961;SDS011;37986;51.238;17.128;2022-11-15T08:14:54;4.00;;;3.62;;
51961;SDS011;37986;51.238;17.128;2022-11-15T08:17:22;2.98;;;2.25;;
51961;SDS011;37986;51.238;17.128;2022-11-15T08:19:50;11.97;;;8.03;;
51961;SDS011;37986;51.238;17.128;2022-11-15T08:22:16;6.12;;;4.60;;
51961;SDS011;37986;51.238;17.128;2022-11-15T08:24:43;7.67;;;5.87;;
51961;SDS011;37986;51.238;17.128;2022-11-15T08:27:09;5.75;;;4.95;;
51961;SDS011;37986;51.238;17.128;2022-11-15T08:29:37;16.77;;;7.25;;
51961;SDS011;37986;51.238;17.128;2022-11-15T08:32:03;4.93;;;4.40;;
51961;SDS011;37986;51.238;17.128;2022-11-15T08:34:29;3.30;;;3.08;;
51961;SDS011;37986;51.238;17.128;2022-11-15T08:36:55;4.77;;;4.20;;
51961;SDS011;37986;51.238;17.128;2022-11-15T08:39:22;4.73;;;4.10;;
51961;SDS011;37986;51.238;17.128;2022-11-15T08:41:48;7.12;;;5.17;;
51961;SDS011;37986;51.238;17.128;2022-11-15T08:44:13;5.97;;;4.10;;
51961;SDS011;37986;51.238;17.128;2022-11-15T08:46:39;5.53;;;3.53;;
51961;SDS011;37986;51.238;17.128;2022-11-15T08:49:05;5.90;;;4.23;;
51961;SDS011;37986;51.238;17.128;2022-11-15T08:51:31;11.87;;;7.50;;
51961;SDS011;37986;51.238;17.128;2022-11-15T08:53:56;15.07;;;4.57;;
51961;SDS011;37986;51.238;17.128;2022-11-15T08:56:22;11.63;;;5.07;;
51961;SDS011;37986;51.238;17.128;2022-11-15T08:58:48;6.80;;;5.50;;
51961;SDS011;37986;51.238;17.128;2022-11-15T09:01:15;3.80;;;3.37;;
51961;SDS011;37986;51.238;17.128;2022-11-15T09:03:44;3.55;;;3.33;;
51961;SDS011;37986;51.238;17.128;2022-11-15T09:06:10;12.10;;;3.13;;
51961;SDS011;37986;51.238;17.128;2022-11-15T09:08:37;4.08;;;3.85;;
51961;SDS011;37986;51.238;17.128;2022-11-15T09:11:07;9.98;;;6.28;;
51961;SDS011;37986;51.238;17.128;2022-11-15T09:13:35;1.65;;;1.62;;
51961;SDS011;37986;51.238;17.128;2022-11-15T09:16:04;17.75;;;5.87;;
51961;SDS011;37986;51.238;17.128;2022-11-15T09:18:31;18.65;;;7.45;;
51961;SDS011;37986;51.238;17.128;2022-11-15T09:20:58;13.60;;;5.15;;
51961;SDS011;37986;51.238;17.128;2022-11-15T09:23:25;10.68;;;5.90;;
51961;SDS011;37986;51.238;17.128;2022-11-15T09:25:52;6.22;;;4.60;;
51961;SDS011;37986;51.238;17.128;2022-11-15T09:28:20;19.62;;;4.00;;
51961;SDS011;37986;51.238;17.128;2022-11-15T09:30:45;4.13;;;3.83;;
51961;SDS011;37986;51.238;17.128;2022-11-15T09:33:12;7.87;;;4.90;;
51961;SDS011;37986;51.238;17.128;2022-11-15T09:35:38;4.95;;;4.22;;
51961;SDS011;37986;51.238;17.128;2022-11-15T09:38:06;6.83;;;3.67;;
51961;SDS011;37986;51.238;17.128;2022-11-15T09:40:32;10.00;;;6.05;;
51961;SDS011;37986;51.238;17.128;2022-11-15T09:50:53;2.65;;;2.37;;
51961;SDS011;37986;51.238;17.128;2022-11-15T09:53:25;6.83;;;5.90;;
51961;SDS011;37986;51.238;17.128;2022-11-15T09:55:58;11.88;;;3.22;;
51961;SDS011;37986;51.238;17.128;2022-11-15T09:58:46;2.22;;;1.12;;
51961;SDS011;37986;51.238;17.128;2022-11-15T10:04:20;17.98;;;3.55;;
51961;SDS011;37986;51.238;17.128;2022-11-15T10:06:55;3.92;;;3.40;;
51961;SDS011;37986;51.238;17.128;2022-11-15T10:10:10;7.72;;;4.60;;
51961;SDS011;37986;51.238;17.128;2022-11-15T10:12:53;1.85;;;1.32;;
51961;SDS011;37986;51.238;17.128;2022-11-15T10:15:19;3.27;;;2.72;;
51961;SDS011;37986;51.238;17.128;2022-11-15T10:20:44;6.85;;;4.40;;
51961;SDS011;37986;51.238;17.128;2022-11-15T10:23:21;11.68;;;4.78;;
51961;SDS011;37986;51.238;17.128;2022-11-15T10:25:45;7.67;;;3.95;;
51961;SDS011;37986;51.238;17.128;2022-11-15T10:30:53;4.00;;;3.80;;
51961;SDS011;37986;51.238;17.128;2022-11-15T10:36:14;3.95;;;1.98;;
51961;SDS011;37986;51.238;17.128;2022-11-15T10:44:07;0.95;;;0.95;;
51961;SDS011;37986;51.238;17.128;2022-11-15T10:49:31;7.33;;;1.80;;
51961;SDS011;37986;51.238;17.128;2022-11-15T10:52:04;4.40;;;3.02;;
51961;SDS011;37986;51.238;17.128;2022-11-15T10:54:49;1.62;;;1.27;;
51961;SDS011;37986;51.238;17.128;2022-11-15T10:57:23;0.40;;;0.40;;
51961;SDS011;37986;51.238;17.128;2022-11-15T10:59:57;1.62;;;1.52;;
51961;SDS011;37986;51.238;17.128;2022-11-15T11:05:06;3.22;;;2.92;;
51961;SDS011;37986;51.238;17.128;2022-11-15T11:10:38;0.20;;;0.20;;
51961;SDS011;37986;51.238;17.128;2022-11-15T11:13:14;3.52;;;3.02;;
51961;SDS011;37986;51.238;17.128;2022-11-15T11:16:36;0.62;;;0.62;;
51961;SDS011;37986;51.238;17.128;2022-11-15T11:46:21;9.08;;;6.22;;
51961;SDS011;37986;51.238;17.128;2022-11-15T11:48:38;1.75;;;1.65;;
51961;SDS011;37986;51.238;17.128;2022-11-15T11:56:44;0.95;;;0.90;;
51961;SDS011;37986;51.238;17.128;2022-11-15T12:02:16;4.30;;;3.92;;
51961;SDS011;37986;51.238;17.128;2022-11-15T12:05:05;1.72;;;1.52;;
51961;SDS011;37986;51.238;17.128;2022-11-15T12:07:38;2.25;;;1.42;;
51961;SDS011;37986;51.238;17.128;2022-11-15T12:13:04;4.33;;;2.10;;
51961;SDS011;37986;51.238;17.128;2022-11-15T12:15:43;0.80;;;0.80;;
51961;SDS011;37986;51.238;17.128;2022-11-15T12:18:14;9.38;;;1.80;;
51961;SDS011;37986;51.238;17.128;2022-11-15T12:20:42;10.43;;;4.80;;
51961;SDS011;37986;51.238;17.128;2022-11-15T12:23:28;10.28;;;2.90;;
51961;SDS011;37986;51.238;17.128;2022-11-15T12:26:03;6.60;;;3.65;;
51961;SDS011;37986;51.238;17.128;2022-11-15T12:31:26;4.12;;;3.80;;
51961;SDS011;37986;51.238;17.128;2022-11-15T12:34:13;2.35;;;2.25;;
51961;SDS011;37986;51.238;17.128;2022-11-15T12:36:48;1.22;;;1.17;;
51961;SDS011;37986;51.238;17.128;2022-11-15T12:39:16;3.87;;;3.27;;
51961;SDS011;37986;51.238;17.128;2022-11-15T12:41:43;7.35;;;4.08;;
51961;SDS011;37986;51.238;17.128;2022-11-15T12:47:21;5.45;;;3.98;;
51961;SDS011;37986;51.238;17.128;2022-11-15T12:49:49;2.25;;;2.12;;
51961;SDS011;37986;51.238;17.128;2022-11-15T12:52:16;3.87;;;2.92;;
51961;SDS011;37986;51.238;17.128;2022-11-15T12:57:25;0.10;;;0.10;;
51961;SDS011;37986;51.238;17.128;2022-11-15T12:59:56;0.30;;;0.30;;
51961;SDS011;37986;51.238;17.128;2022-11-15T13:10:33;2.47;;;2.33;;
51961;SDS011;37986;51.238;17.128;2022-11-15T13:13:07;9.65;;;4.35;;
51961;SDS011;37986;51.238;17.128;2022-11-15T13:15:39;1.87;;;1.77;;
51961;SDS011;37986;51.238;17.128;2022-11-15T13:21:02;0.10;;;0.10;;
51961;SDS011;37986;51.238;17.128;2022-11-15T13:23:33;1.40;;;1.20;;
51961;SDS011;37986;51.238;17.128;2022-11-15T13:28:41;0.20;;;0.20;;
51961;SDS011;37986;51.238;17.128;2022-11-15T13:37:01;0.10;;;0.10;;
51961;SDS011;37986;51.238;17.128;2022-11-15T13:39:34;2.30;;;1.75;;
51961;SDS011;37986;51.238;17.128;2022-11-15T13:42:02;1.47;;;1.37;;
51961;SDS011;37986;51.238;17.128;2022-11-15T13:44:29;2.12;;;1.85;;
51961;SDS011;37986;51.238;17.128;2022-11-15T13:47:04;2.40;;;2.30;;
51961;SDS011;37986;51.238;17.128;2022-11-15T13:49:34;3.98;;;2.37;;
51961;SDS011;37986;51.238;17.128;2022-11-15T13:52:01;5.62;;;3.98;;
51961;SDS011;37986;51.238;17.128;2022-11-15T13:54:35;2.47;;;2.33;;
51961;SDS011;37986;51.238;17.128;2022-11-15T13:57:18;3.08;;;2.95;;
51961;SDS011;37986;51.238;17.128;2022-11-15T14:00:38;5.65;;;2.58;;
51961;SDS011;37986;51.238;17.128;2022-11-15T14:02:31;6.03;;;2.87;;
51961;SDS011;37986;51.238;17.128;2022-11-15T14:05:00;6.35;;;3.62;;
51961;SDS011;37986;51.238;17.128;2022-11-15T14:10:32;10.23;;;1.70;;
51961;SDS011;37986;51.238;17.128;2022-11-15T14:13:00;6.83;;;3.40;;
51961;SDS011;37986;51.238;17.128;2022-11-15T14:15:34;3.33;;;2.60;;
51961;SDS011;37986;51.238;17.128;2022-11-15T14:18:05;8.53;;;6.03;;
51961;SDS011;37986;51.238;17.128;2022-11-15T14:20:33;9.10;;;3.65;;
51961;SDS011;37986;51.238;17.128;2022-11-15T14:23:04;5.33;;;2.62;;
51961;SDS011;37986;51.238;17.128;2022-11-15T14:25:55;2.47;;;2.37;;
51961;SDS011;37986;51.238;17.128;2022-11-15T14:30:56;2.87;;;2.65;;
51961;SDS011;37986;51.238;17.128;2022-11-15T14:33:30;25.82;;;4.85;;
51961;SDS011;37986;51.238;17.128;2022-11-15T14:38:38;3.98;;;2.77;;
51961;SDS011;37986;51.238;17.128;2022-11-15T14:41:04;2.67;;;2.45;;
51961;SDS011;37986;51.238;17.128;2022-11-15T14:43:31;12.33;;;5.78;;
51961;SDS011;37986;51.238;17.128;2022-11-15T14:45:57;2.67;;;2.50;;
51961;SDS011;37986;51.238;17.128;2022-11-15T14:48:23;2.70;;;2.30;;
51961;SDS011;37986;51.238;17.128;2022-11-15T14:50:48;4.20;;;3.90;;
51961;SDS011;37986;51.238;17.128;2022-11-15T14:53:15;2.45;;;2.33;;
51961;SDS011;37986;51.238;17.128;2022-11-15T14:55:43;0.85;;;0.85;;
51961;SDS011;37986;51.238;17.128;2022-11-15T14:58:09;2.92;;;2.83;;
51961;SDS011;37986;51.238;17.128;2022-11-15T15:00:39;20.55;;;6.58;;
51961;SDS011;37986;51.238;17.128;2022-11-15T15:03:06;1.95;;;1.85;;
51961;SDS011;37986;51.238;17.128;2022-11-15T15:05:38;0.98;;;0.98;;
51961;SDS011;37986;51.238;17.128;2022-11-15T15:08:06;4.75;;;3.42;;
51961;SDS011;37986;51.238;17.128;2022-11-15T15:10:34;0.40;;;0.40;;
51961;SDS011;37986;51.238;17.128;2022-11-15T15:13:05;6.42;;;5.10;;
51961;SDS011;37986;51.238;17.128;2022-11-15T15:15:34;1.07;;;1.07;;
51961;SDS011;37986;51.238;17.128;2022-11-15T15:18:02;4.62;;;3.25;;
51961;SDS011;37986;51.238;17.128;2022-11-15T15:20:30;10.58;;;8.05;;
51961;SDS011;37986;51.238;17.128;2022-11-15T15:22:57;4.15;;;3.95;;
51961;SDS011;37986;51.238;17.128;2022-11-15T15:25:24;7.60;;;7.10;;
51961;SDS011;37986;51.238;17.128;2022-11-15T15:27:59;28.05;;;19.20;;
51961;SDS011;37986;51.238;17.128;2022-11-15T15:30:26;23.77;;;11.18;;
51961;SDS011;37986;51.238;17.128;2022-11-15T15:32:55;11.50;;;5.40;;
51961;SDS011;37986;51.238;17.128;2022-11-15T15:35:21;24.30;;;12.65;;
51961;SDS011;37986;51.238;17.128;2022-11-15T15:37:48;45.28;;;25.68;;
51961;SDS011;37986;51.238;17.128;2022-11-15T15:40:16;69.47;;;28.25;;
51961;SDS011;37986;51.238;17.128;2022-11-15T15:42:47;29.48;;;17.30;;
51961;SDS011;37986;51.238;17.128;2022-11-15T15:45:14;14.75;;;11.57;;
51961;SDS011;37986;51.238;17.128;2022-11-15T15:47:41;24.75;;;12.43;;
51961;SDS011;37986;51.238;17.128;2022-11-15T15:50:29;15.28;;;5.67;;
51961;SDS011;37986;51.238;17.128;2022-11-15T15:52:56;21.33;;;14.75;;
51961;SDS011;37986;51.238;17.128;2022-11-15T15:55:24;13.45;;;5.47;;
51961;SDS011;37986;51.238;17.128;2022-11-15T15:57:51;18.23;;;11.20;;
51961;SDS011;37986;51.238;17.128;2022-11-15T16:00:17;14.18;;;9.28;;
51961;SDS011;37986;51.238;17.128;2022-11-15T16:02:45;22.50;;;8.35;;
51961;SDS011;37986;51.238;17.128;2022-11-15T16:05:11;24.12;;;9.78;;
51961;SDS011;37986;51.238;17.128;2022-11-15T16:07:37;21.17;;;8.18;;
51961;SDS011;37986;51.238;17.128;2022-11-15T16:10:23;42.60;;;23.40;;
51961;SDS011;37986;51.238;17.128;2022-11-15T16:12:53;41.48;;;18.75;;
51961;SDS011;37986;51.238;17.128;2022-11-15T16:15:20;22.27;;;10.35;;
51961;SDS011;37986;51.238;17.128;2022-11-15T16:17:50;38.58;;;18.40;;
51961;SDS011;37986;51.238;17.128;2022-11-15T16:20:29;23.95;;;18.95;;
51961;SDS011;37986;51.238;17.128;2022-11-15T16:23:07;30.50;;;15.75;;
51961;SDS011;37986;51.238;17.128;2022-11-15T16:25:45;21.25;;;16.37;;
51961;SDS011;37986;51.238;17.128;2022-11-15T16:28:16;23.32;;;16.77;;
51961;SDS011;37986;51.238;17.128;2022-11-15T16:30:46;34.85;;;15.72;;
51961;SDS011;37986;51.238;17.128;2022-11-15T16:33:12;53.92;;;21.77;;
51961;SDS011;37986;51.238;17.128;2022-11-15T16:35:38;16.00;;;14.27;;
51961;SDS011;37986;51.238;17.128;2022-11-15T16:38:04;23.60;;;14.77;;
51961;SDS011;37986;51.238;17.128;2022-11-15T16:40:31;27.47;;;15.13;;
51961;SDS011;37986;51.238;17.128;2022-11-15T16:43:00;66.40;;;41.45;;
51961;SDS011;37986;51.238;17.128;2022-11-15T16:45:27;41.48;;;23.90;;
51961;SDS011;37986;51.238;17.128;2022-11-15T16:47:54;78.25;;;40.05;;
51961;SDS011;37986;51.238;17.128;2022-11-15T16:50:25;29.00;;;14.70;;
51961;SDS011;37986;51.238;17.128;2022-11-15T16:52:55;36.35;;;18.73;;
51961;SDS011;37986;51.238;17.128;2022-11-15T16:55:24;74.22;;;33.30;;
51961;SDS011;37986;51.238;17.128;2022-11-15T16:57:52;51.35;;;20.85;;
51961;SDS011;37986;51.238;17.128;2022-11-15T17:00:19;37.95;;;19.32;;
51961;SDS011;37986;51.238;17.128;2022-11-15T17:02:46;31.90;;;19.57;;
51961;SDS011;37986;51.238;17.128;2022-11-15T17:05:15;24.18;;;16.60;;